sensor_id;sensor_type;location;lat;lon;timestamp;P1;durP1;ratioP1;P2;durP2;ratioP2
8293;SDS011;4185;41.506;24.938;2023-08-20T00:00:02;8.57;;;7.20;;
8293;SDS011;4185;41.506;24.938;2023-08-20T00:02:32;8.53;;;7.63;;
8293;SDS011;4185;41.506;24.938;2023-08-20T00:05:02;8.70;;;7.80;;
8293;SDS011;4185;41.506;24.938;2023-08-20T00:07:30;10.03;;;8.07;;
8293;SDS011;4185;41.506;24.938;2023-08-20T00:09:58;8.00;;;7.20;;
8293;SDS011;4185;41.506;24.938;2023-08-20T00:12:26;8.90;;;7.87;;
8293;SDS011;4185;41.506;24.938;2023-08-20T00:14:54;10.17;;;7.87;;
8293;SDS011;4185;41.506;24.938;2023-08-20T00:17:23;12.27;;;8.37;;
8293;SDS011;4185;41.506;24.938;2023-08-20T00:19:52;9.63;;;7.63;;
8293;SDS011;4185;41.506;24.938;2023-08-20T00:22:21;9.17;;;7.57;;
8293;SDS011;4185;41.506;24.938;2023-08-20T00:24:48;9.80;;;7.33;;
8293;SDS011;4185;41.506;24.938;2023-08-20T00:27:16;9.63;;;7.93;;
8293;SDS011;4185;41.506;24.938;2023-08-20T00:29:44;9.73;;;6.97;;
8293;SDS011;4185;41.506;24.938;2023-08-20T00:32:11;8.30;;;7.37;;
8293;SDS011;4185;41.506;24.938;2023-08-20T00:34:37;8.87;;;6.90;;
8293;SDS011;4185;41.506;24.938;2023-08-20T00:37:05;9.10;;;7.17;;
8293;SDS011;4185;41.506;24.938;2023-08-20T00:39:32;7.97;;;6.80;;
8293;SDS011;4185;41.506;24.938;2023-08-20T00:41:58;9.20;;;6.70;;
8293;SDS011;4185;41.506;24.938;2023-08-20T00:44:25;10.27;;;7.43;;
8293;SDS011;4185;41.506;24.938;2023-08-20T00:46:53;9.90;;;7.47;;
8293;SDS011;4185;41.506;24.938;2023-08-20T00:49:20;7.97;;;6.83;;
8293;SDS011;4185;41.506;24.938;2023-08-20T00:51:47;7.67;;;6.90;;
8293;SDS011;4185;41.506;24.938;2023-08-20T00:54:14;7.50;;;6.80;;
8293;SDS011;4185;41.506;24.938;2023-08-20T00:56:41;8.50;;;6.77;;
8293;SDS011;4185;41.506;24.938;2023-08-20T00:59:08;8.33;;;6.53;;
8293;SDS011;4185;41.506;24.938;2023-08-20T01:01:36;7.00;;;6.27;;
8293;SDS011;4185;41.506;24.938;2023-08-20T01:04:04;8.00;;;6.87;;
8293;SDS011;4185;41.506;24.938;2023-08-20T01:06:34;8.10;;;6.70;;
8293;SDS011;4185;41.506;24.938;2023-08-20T01:09:12;9.70;;;6.90;;
8293;SDS011;4185;41.506;24.938;2023-08-20T01:11:49;8.27;;;6.77;;
8293;SDS011;4185;41.506;24.938;2023-08-20T01:14:21;7.77;;;6.97;;
8293;SDS011;4185;41.506;24.938;2023-08-20T01:16:48;7.33;;;6.47;;
8293;SDS011;4185;41.506;24.938;2023-08-20T01:19:17;9.20;;;7.50;;
8293;SDS011;4185;41.506;24.938;2023-08-20T01:21:47;9.13;;;7.43;;
8293;SDS011;4185;41.506;24.938;2023-08-20T01:24:30;9.97;;;7.87;;
8293;SDS011;4185;41.506;24.938;2023-08-20T01:27:13;9.60;;;6.97;;
8293;SDS011;4185;41.506;24.938;2023-08-20T01:29:54;7.90;;;7.00;;
8293;SDS011;4185;41.506;24.938;2023-08-20T01:32:22;8.27;;;7.37;;
8293;SDS011;4185;41.506;24.938;2023-08-20T01:34:50;9.67;;;7.30;;
8293;SDS011;4185;41.506;24.938;2023-08-20T01:37:18;9.80;;;6.87;;
8293;SDS011;4185;41.506;24.938;2023-08-20T01:39:45;8.07;;;7.23;;
8293;SDS011;4185;41.506;24.938;2023-08-20T01:42:12;10.70;;;7.30;;
8293;SDS011;4185;41.506;24.938;2023-08-20T01:44:39;7.33;;;6.63;;
8293;SDS011;4185;41.506;24.938;2023-08-20T01:47:07;8.87;;;7.97;;
8293;SDS011;4185;41.506;24.938;2023-08-20T01:49:34;10.33;;;7.90;;
8293;SDS011;4185;41.506;24.938;2023-08-20T01:52:04;8.17;;;7.03;;
8293;SDS011;4185;41.506;24.938;2023-08-20T01:54:31;8.30;;;7.40;;
8293;SDS011;4185;41.506;24.938;2023-08-20T01:56:57;9.77;;;7.50;;
8293;SDS011;4185;41.506;24.938;2023-08-20T01:59:24;9.30;;;7.30;;
8293;SDS011;4185;41.506;24.938;2023-08-20T02:01:51;9.67;;;7.50;;
8293;SDS011;4185;41.506;24.938;2023-08-20T02:04:19;8.43;;;7.20;;
8293;SDS011;4185;41.506;24.938;2023-08-20T02:06:46;8.47;;;7.63;;
8293;SDS011;4185;41.506;24.938;2023-08-20T02:09:13;8.33;;;7.50;;
8293;SDS011;4185;41.506;24.938;2023-08-20T02:11:39;8.80;;;7.03;;
8293;SDS011;4185;41.506;24.938;2023-08-20T02:14:06;8.17;;;7.13;;
8293;SDS011;4185;41.506;24.938;2023-08-20T02:16:33;8.10;;;7.30;;
8293;SDS011;4185;41.506;24.938;2023-08-20T02:18:59;8.77;;;7.13;;
8293;SDS011;4185;41.506;24.938;2023-08-20T02:21:29;7.83;;;7.00;;
8293;SDS011;4185;41.506;24.938;2023-08-20T02:23:56;7.83;;;6.73;;
8293;SDS011;4185;41.506;24.938;2023-08-20T02:26:22;7.60;;;6.80;;
8293;SDS011;4185;41.506;24.938;2023-08-20T02:28:49;8.40;;;7.50;;
8293;SDS011;4185;41.506;24.938;2023-08-20T02:31:16;8.37;;;7.40;;
8293;SDS011;4185;41.506;24.938;2023-08-20T02:33:43;8.50;;;7.57;;
8293;SDS011;4185;41.506;24.938;2023-08-20T02:36:10;8.73;;;7.83;;
8293;SDS011;4185;41.506;24.938;2023-08-20T02:38:38;8.63;;;7.73;;
8293;SDS011;4185;41.506;24.938;2023-08-20T02:41:05;8.17;;;7.37;;
8293;SDS011;4185;41.506;24.938;2023-08-20T02:43:31;8.50;;;7.60;;
8293;SDS011;4185;41.506;24.938;2023-08-20T02:45:58;8.10;;;7.00;;
8293;SDS011;4185;41.506;24.938;2023-08-20T02:48:25;8.37;;;7.23;;
8293;SDS011;4185;41.506;24.938;2023-08-20T02:50:52;9.10;;;7.10;;
8293;SDS011;4185;41.506;24.938;2023-08-20T02:53:19;9.17;;;7.70;;
8293;SDS011;4185;41.506;24.938;2023-08-20T02:55:48;9.80;;;7.53;;
8293;SDS011;4185;41.506;24.938;2023-08-20T02:58:15;8.33;;;7.43;;
8293;SDS011;4185;41.506;24.938;2023-08-20T03:00:42;9.30;;;7.30;;
8293;SDS011;4185;41.506;24.938;2023-08-20T03:03:10;8.33;;;7.23;;
8293;SDS011;4185;41.506;24.938;2023-08-20T03:05:36;8.37;;;7.47;;
8293;SDS011;4185;41.506;24.938;2023-08-20T03:08:03;8.80;;;7.37;;
8293;SDS011;4185;41.506;24.938;2023-08-20T03:10:31;8.97;;;7.17;;
8293;SDS011;4185;41.506;24.938;2023-08-20T03:13:00;8.00;;;7.00;;
8293;SDS011;4185;41.506;24.938;2023-08-20T03:15:27;9.50;;;7.83;;
8293;SDS011;4185;41.506;24.938;2023-08-20T03:17:54;9.80;;;8.53;;
8293;SDS011;4185;41.506;24.938;2023-08-20T03:20:20;9.03;;;7.80;;
8293;SDS011;4185;41.506;24.938;2023-08-20T03:22:47;10.83;;;7.93;;
8293;SDS011;4185;41.506;24.938;2023-08-20T03:25:14;7.87;;;7.07;;
8293;SDS011;4185;41.506;24.938;2023-08-20T03:27:41;9.73;;;8.10;;
8293;SDS011;4185;41.506;24.938;2023-08-20T03:30:10;9.67;;;8.17;;
8293;SDS011;4185;41.506;24.938;2023-08-20T03:32:37;10.13;;;8.47;;
8293;SDS011;4185;41.506;24.938;2023-08-20T03:35:05;8.03;;;7.23;;
8293;SDS011;4185;41.506;24.938;2023-08-20T03:37:32;8.87;;;7.80;;
8293;SDS011;4185;41.506;24.938;2023-08-20T03:39:58;10.70;;;7.73;;
8293;SDS011;4185;41.506;24.938;2023-08-20T03:42:25;9.47;;;7.50;;
8293;SDS011;4185;41.506;24.938;2023-08-20T03:44:52;10.60;;;7.80;;
8293;SDS011;4185;41.506;24.938;2023-08-20T03:47:20;9.73;;;8.63;;
8293;SDS011;4185;41.506;24.938;2023-08-20T03:49:47;9.07;;;8.07;;
8293;SDS011;4185;41.506;24.938;2023-08-20T03:52:14;9.30;;;7.77;;
8293;SDS011;4185;41.506;24.938;2023-08-20T03:54:40;9.20;;;7.43;;
8293;SDS011;4185;41.506;24.938;2023-08-20T03:57:07;9.40;;;7.50;;
8293;SDS011;4185;41.506;24.938;2023-08-20T03:59:34;9.90;;;7.87;;
8293;SDS011;4185;41.506;24.938;2023-08-20T04:02:01;10.27;;;7.93;;
8293;SDS011;4185;41.506;24.938;2023-08-20T04:04:29;9.33;;;7.53;;
8293;SDS011;4185;41.506;24.938;2023-08-20T04:06:56;9.00;;;8.07;;
8293;SDS011;4185;41.506;24.938;2023-08-20T04:09:23;8.73;;;7.83;;
8293;SDS011;4185;41.506;24.938;2023-08-20T04:11:50;8.47;;;7.20;;
8293;SDS011;4185;41.506;24.938;2023-08-20T04:14:17;12.23;;;7.53;;
8293;SDS011;4185;41.506;24.938;2023-08-20T04:16:43;8.00;;;7.20;;
8293;SDS011;4185;41.506;24.938;2023-08-20T04:19:11;9.47;;;7.27;;
8293;SDS011;4185;41.506;24.938;2023-08-20T04:21:39;9.77;;;7.80;;
8293;SDS011;4185;41.506;24.938;2023-08-20T04:24:06;7.73;;;6.87;;
8293;SDS011;4185;41.506;24.938;2023-08-20T04:26:32;8.40;;;7.43;;
8293;SDS011;4185;41.506;24.938;2023-08-20T04:28:59;8.57;;;7.03;;
8293;SDS011;4185;41.506;24.938;2023-08-20T04:31:26;8.97;;;7.60;;
8293;SDS011;4185;41.506;24.938;2023-08-20T04:33:53;8.67;;;7.77;;
8293;SDS011;4185;41.506;24.938;2023-08-20T04:36:20;9.30;;;8.23;;
8293;SDS011;4185;41.506;24.938;2023-08-20T04:38:48;8.60;;;7.70;;
8293;SDS011;4185;41.506;24.938;2023-08-20T04:41:15;10.37;;;7.73;;
8293;SDS011;4185;41.506;24.938;2023-08-20T04:43:41;8.83;;;7.93;;
8293;SDS011;4185;41.506;24.938;2023-08-20T04:46:08;11.13;;;8.13;;
8293;SDS011;4185;41.506;24.938;2023-08-20T04:48:35;8.17;;;7.00;;
8293;SDS011;4185;41.506;24.938;2023-08-20T04:51:02;9.27;;;7.10;;
8293;SDS011;4185;41.506;24.938;2023-08-20T04:53:29;8.33;;;7.50;;
8293;SDS011;4185;41.506;24.938;2023-08-20T04:55:58;10.17;;;7.23;;
8293;SDS011;4185;41.506;24.938;2023-08-20T04:58:25;7.77;;;6.97;;
8293;SDS011;4185;41.506;24.938;2023-08-20T05:00:52;8.27;;;7.30;;
8293;SDS011;4185;41.506;24.938;2023-08-20T05:03:18;8.90;;;6.90;;
8293;SDS011;4185;41.506;24.938;2023-08-20T05:05:48;7.20;;;6.50;;
8293;SDS011;4185;41.506;24.938;2023-08-20T05:08:15;8.43;;;7.20;;
8293;SDS011;4185;41.506;24.938;2023-08-20T05:10:42;8.43;;;6.80;;
8293;SDS011;4185;41.506;24.938;2023-08-20T05:13:10;9.27;;;7.80;;
8293;SDS011;4185;41.506;24.938;2023-08-20T05:15:37;7.00;;;6.30;;
8293;SDS011;4185;41.506;24.938;2023-08-20T05:18:04;9.23;;;7.57;;
8293;SDS011;4185;41.506;24.938;2023-08-20T05:20:31;9.40;;;7.47;;
8293;SDS011;4185;41.506;24.938;2023-08-20T05:22:57;9.50;;;7.33;;
8293;SDS011;4185;41.506;24.938;2023-08-20T05:25:24;7.30;;;6.50;;
8293;SDS011;4185;41.506;24.938;2023-08-20T05:27:51;9.03;;;7.53;;
8293;SDS011;4185;41.506;24.938;2023-08-20T05:30:19;8.23;;;7.43;;
8293;SDS011;4185;41.506;24.938;2023-08-20T05:32:46;8.30;;;7.03;;
8293;SDS011;4185;41.506;24.938;2023-08-20T05:35:13;9.13;;;7.57;;
8293;SDS011;4185;41.506;24.938;2023-08-20T05:37:40;8.67;;;6.93;;
8293;SDS011;4185;41.506;24.938;2023-08-20T05:40:07;8.73;;;7.33;;
8293;SDS011;4185;41.506;24.938;2023-08-20T05:42:34;9.47;;;6.83;;
8293;SDS011;4185;41.506;24.938;2023-08-20T05:45:01;8.77;;;7.17;;
8293;SDS011;4185;41.506;24.938;2023-08-20T05:47:30;9.47;;;6.93;;
8293;SDS011;4185;41.506;24.938;2023-08-20T05:49:56;8.20;;;7.07;;
8293;SDS011;4185;41.506;24.938;2023-08-20T05:52:23;9.00;;;6.70;;
8293;SDS011;4185;41.506;24.938;2023-08-20T05:54:50;7.77;;;6.73;;
8293;SDS011;4185;41.506;24.938;2023-08-20T05:57:17;8.87;;;6.87;;
8293;SDS011;4185;41.506;24.938;2023-08-20T05:59:43;10.30;;;6.97;;
8293;SDS011;4185;41.506;24.938;2023-08-20T06:02:13;10.53;;;7.40;;
8293;SDS011;4185;41.506;24.938;2023-08-20T06:04:43;7.73;;;6.93;;
8293;SDS011;4185;41.506;24.938;2023-08-20T06:07:10;7.43;;;6.73;;
8293;SDS011;4185;41.506;24.938;2023-08-20T06:09:37;10.77;;;7.20;;
8293;SDS011;4185;41.506;24.938;2023-08-20T06:12:04;7.43;;;6.70;;
8293;SDS011;4185;41.506;24.938;2023-08-20T06:14:31;10.20;;;6.93;;
8293;SDS011;4185;41.506;24.938;2023-08-20T06:16:57;8.03;;;6.77;;
8293;SDS011;4185;41.506;24.938;2023-08-20T06:19:24;9.27;;;7.40;;
8293;SDS011;4185;41.506;24.938;2023-08-20T06:21:53;9.70;;;6.53;;
8293;SDS011;4185;41.506;24.938;2023-08-20T06:24:20;7.63;;;6.80;;
8293;SDS011;4185;41.506;24.938;2023-08-20T06:26:47;8.03;;;7.10;;
8293;SDS011;4185;41.506;24.938;2023-08-20T06:29:13;8.13;;;6.30;;
8293;SDS011;4185;41.506;24.938;2023-08-20T06:31:40;8.27;;;6.70;;
8293;SDS011;4185;41.506;24.938;2023-08-20T06:34:07;8.10;;;6.90;;
8293;SDS011;4185;41.506;24.938;2023-08-20T06:36:34;8.07;;;7.20;;
8293;SDS011;4185;41.506;24.938;2023-08-20T06:39:03;7.87;;;7.07;;
8293;SDS011;4185;41.506;24.938;2023-08-20T06:41:30;8.27;;;6.87;;
8293;SDS011;4185;41.506;24.938;2023-08-20T06:43:57;13.50;;;7.50;;
8293;SDS011;4185;41.506;24.938;2023-08-20T06:46:24;9.77;;;7.90;;
8293;SDS011;4185;41.506;24.938;2023-08-20T06:48:51;9.07;;;7.43;;
8293;SDS011;4185;41.506;24.938;2023-08-20T06:51:19;8.57;;;7.40;;
8293;SDS011;4185;41.506;24.938;2023-08-20T06:53:46;11.00;;;7.50;;
8293;SDS011;4185;41.506;24.938;2023-08-20T06:56:14;8.20;;;6.60;;
8293;SDS011;4185;41.506;24.938;2023-08-20T06:58:41;6.40;;;5.80;;
8293;SDS011;4185;41.506;24.938;2023-08-20T07:01:08;6.17;;;5.57;;
8293;SDS011;4185;41.506;24.938;2023-08-20T07:03:37;7.13;;;5.67;;
8293;SDS011;4185;41.506;24.938;2023-08-20T07:06:05;10.13;;;6.07;;
8293;SDS011;4185;41.506;24.938;2023-08-20T07:08:32;5.70;;;5.20;;
8293;SDS011;4185;41.506;24.938;2023-08-20T07:10:59;8.00;;;5.70;;
8293;SDS011;4185;41.506;24.938;2023-08-20T07:13:27;6.47;;;5.20;;
8293;SDS011;4185;41.506;24.938;2023-08-20T07:15:54;6.23;;;5.07;;
8293;SDS011;4185;41.506;24.938;2023-08-20T07:18:21;6.27;;;5.07;;
8293;SDS011;4185;41.506;24.938;2023-08-20T07:20:49;8.80;;;5.00;;
8293;SDS011;4185;41.506;24.938;2023-08-20T07:23:16;6.30;;;4.90;;
8293;SDS011;4185;41.506;24.938;2023-08-20T07:25:43;5.33;;;4.80;;
8293;SDS011;4185;41.506;24.938;2023-08-20T07:28:10;6.10;;;5.00;;
8293;SDS011;4185;41.506;24.938;2023-08-20T07:30:38;5.17;;;4.57;;
8293;SDS011;4185;41.506;24.938;2023-08-20T07:33:05;5.67;;;4.23;;
8293;SDS011;4185;41.506;24.938;2023-08-20T07:35:32;5.47;;;4.40;;
8293;SDS011;4185;41.506;24.938;2023-08-20T07:38:00;8.03;;;4.67;;
8293;SDS011;4185;41.506;24.938;2023-08-20T07:40:27;6.73;;;4.80;;
8293;SDS011;4185;41.506;24.938;2023-08-20T07:42:54;5.20;;;4.40;;
8293;SDS011;4185;41.506;24.938;2023-08-20T07:45:21;6.20;;;4.35;;
8293;SDS011;4185;41.506;24.938;2023-08-20T07:47:49;5.17;;;4.30;;
8293;SDS011;4185;41.506;24.938;2023-08-20T07:50:16;4.60;;;4.10;;
8293;SDS011;4185;41.506;24.938;2023-08-20T07:52:43;6.40;;;4.27;;
8293;SDS011;4185;41.506;24.938;2023-08-20T07:55:09;5.80;;;4.32;;
8293;SDS011;4185;41.506;24.938;2023-08-20T07:57:36;6.18;;;4.22;;
8293;SDS011;4185;41.506;24.938;2023-08-20T08:00:03;7.00;;;4.45;;
8293;SDS011;4185;41.506;24.938;2023-08-20T08:02:31;6.13;;;4.70;;
8293;SDS011;4185;41.506;24.938;2023-08-20T08:04:59;7.28;;;4.57;;
8293;SDS011;4185;41.506;24.938;2023-08-20T08:07:27;5.75;;;4.13;;
8293;SDS011;4185;41.506;24.938;2023-08-20T08:09:54;5.35;;;4.00;;
8293;SDS011;4185;41.506;24.938;2023-08-20T08:12:21;3.95;;;3.65;;
8293;SDS011;4185;41.506;24.938;2023-08-20T08:14:47;4.68;;;3.58;;
8293;SDS011;4185;41.506;24.938;2023-08-20T08:17:14;5.05;;;3.80;;
8293;SDS011;4185;41.506;24.938;2023-08-20T08:19:41;4.00;;;3.50;;
8293;SDS011;4185;41.506;24.938;2023-08-20T08:22:09;3.85;;;3.50;;
8293;SDS011;4185;41.506;24.938;2023-08-20T08:24:36;4.65;;;4.15;;
8293;SDS011;4185;41.506;24.938;2023-08-20T08:27:02;4.93;;;3.80;;
8293;SDS011;4185;41.506;24.938;2023-08-20T08:29:29;4.18;;;3.60;;
8293;SDS011;4185;41.506;24.938;2023-08-20T08:31:56;5.03;;;3.00;;
8293;SDS011;4185;41.506;24.938;2023-08-20T08:34:23;4.05;;;3.65;;
8293;SDS011;4185;41.506;24.938;2023-08-20T08:36:49;4.03;;;3.60;;
8293;SDS011;4185;41.506;24.938;2023-08-20T08:39:18;4.32;;;3.40;;
8293;SDS011;4185;41.506;24.938;2023-08-20T08:41:44;4.03;;;3.53;;
8293;SDS011;4185;41.506;24.938;2023-08-20T08:44:17;3.97;;;3.40;;
8293;SDS011;4185;41.506;24.938;2023-08-20T08:46:44;7.93;;;3.30;;
8293;SDS011;4185;41.506;24.938;2023-08-20T08:49:14;5.45;;;3.75;;
8293;SDS011;4185;41.506;24.938;2023-08-20T08:51:41;5.78;;;3.65;;
8293;SDS011;4185;41.506;24.938;2023-08-20T08:54:10;7.88;;;3.95;;
8293;SDS011;4185;41.506;24.938;2023-08-20T08:56:40;4.28;;;3.88;;
8293;SDS011;4185;41.506;24.938;2023-08-20T08:59:06;4.22;;;3.83;;
8293;SDS011;4185;41.506;24.938;2023-08-20T09:01:37;5.78;;;3.53;;
8293;SDS011;4185;41.506;24.938;2023-08-20T09:04:04;8.63;;;4.28;;
8293;SDS011;4185;41.506;24.938;2023-08-20T09:06:43;5.20;;;4.03;;
8293;SDS011;4185;41.506;24.938;2023-08-20T09:09:11;4.60;;;4.20;;
8293;SDS011;4185;41.506;24.938;2023-08-20T09:11:40;4.75;;;4.10;;
8293;SDS011;4185;41.506;24.938;2023-08-20T09:14:06;4.50;;;3.97;;
8293;SDS011;4185;41.506;24.938;2023-08-20T09:16:33;4.60;;;3.95;;
8293;SDS011;4185;41.506;24.938;2023-08-20T09:19:00;4.50;;;4.07;;
8293;SDS011;4185;41.506;24.938;2023-08-20T09:21:27;4.65;;;4.22;;
8293;SDS011;4185;41.506;24.938;2023-08-20T09:23:55;5.28;;;4.65;;
8293;SDS011;4185;41.506;24.938;2023-08-20T09:26:22;7.13;;;4.13;;
8293;SDS011;4185;41.506;24.938;2023-08-20T09:28:54;8.20;;;4.15;;
8293;SDS011;4185;41.506;24.938;2023-08-20T09:31:22;5.00;;;4.50;;
8293;SDS011;4185;41.506;24.938;2023-08-20T09:34:03;6.30;;;4.30;;
8293;SDS011;4185;41.506;24.938;2023-08-20T09:36:30;5.22;;;4.25;;
8293;SDS011;4185;41.506;24.938;2023-08-20T09:38:58;6.25;;;4.47;;
8293;SDS011;4185;41.506;24.938;2023-08-20T09:41:25;5.70;;;4.82;;
8293;SDS011;4185;41.506;24.938;2023-08-20T09:43:55;5.22;;;4.38;;
8293;SDS011;4185;41.506;24.938;2023-08-20T09:46:23;7.18;;;4.80;;
8293;SDS011;4185;41.506;24.938;2023-08-20T09:48:52;4.97;;;4.47;;
8293;SDS011;4185;41.506;24.938;2023-08-20T09:51:24;6.38;;;4.43;;
8293;SDS011;4185;41.506;24.938;2023-08-20T09:53:55;8.27;;;5.82;;
8293;SDS011;4185;41.506;24.938;2023-08-20T09:56:27;5.55;;;4.72;;
8293;SDS011;4185;41.506;24.938;2023-08-20T09:58:56;7.40;;;4.72;;
8293;SDS011;4185;41.506;24.938;2023-08-20T10:01:24;8.40;;;4.53;;
8293;SDS011;4185;41.506;24.938;2023-08-20T10:03:51;5.03;;;4.40;;
8293;SDS011;4185;41.506;24.938;2023-08-20T10:06:18;5.95;;;4.40;;
8293;SDS011;4185;41.506;24.938;2023-08-20T10:08:46;4.65;;;4.25;;
8293;SDS011;4185;41.506;24.938;2023-08-20T10:11:14;4.70;;;4.20;;
8293;SDS011;4185;41.506;24.938;2023-08-20T10:13:41;5.32;;;4.20;;
8293;SDS011;4185;41.506;24.938;2023-08-20T10:16:09;5.57;;;4.57;;
8293;SDS011;4185;41.506;24.938;2023-08-20T10:18:38;6.20;;;4.57;;
8293;SDS011;4185;41.506;24.938;2023-08-20T10:21:05;4.70;;;4.18;;
8293;SDS011;4185;41.506;24.938;2023-08-20T10:23:33;4.95;;;4.38;;
8293;SDS011;4185;41.506;24.938;2023-08-20T10:26:06;5.22;;;4.30;;
8293;SDS011;4185;41.506;24.938;2023-08-20T10:28:34;6.47;;;4.13;;
8293;SDS011;4185;41.506;24.938;2023-08-20T10:31:05;5.82;;;4.28;;
8293;SDS011;4185;41.506;24.938;2023-08-20T10:33:35;6.28;;;4.68;;
8293;SDS011;4185;41.506;24.938;2023-08-20T10:36:09;4.97;;;4.38;;
8293;SDS011;4185;41.506;24.938;2023-08-20T10:38:40;5.75;;;4.32;;
8293;SDS011;4185;41.506;24.938;2023-08-20T10:41:07;7.40;;;4.35;;
8293;SDS011;4185;41.506;24.938;2023-08-20T10:43:35;5.78;;;4.50;;
8293;SDS011;4185;41.506;24.938;2023-08-20T10:46:04;4.72;;;4.28;;
8293;SDS011;4185;41.506;24.938;2023-08-20T10:48:41;7.78;;;4.20;;
8293;SDS011;4185;41.506;24.938;2023-08-20T10:51:09;5.72;;;4.55;;
8293;SDS011;4185;41.506;24.938;2023-08-20T10:53:37;6.55;;;5.07;;
8293;SDS011;4185;41.506;24.938;2023-08-20T10:56:12;4.57;;;4.18;;
8293;SDS011;4185;41.506;24.938;2023-08-20T10:58:44;5.72;;;4.30;;
8293;SDS011;4185;41.506;24.938;2023-08-20T11:01:12;4.60;;;4.10;;
8293;SDS011;4185;41.506;24.938;2023-08-20T11:03:41;5.22;;;4.25;;
8293;SDS011;4185;41.506;24.938;2023-08-20T11:06:09;5.95;;;4.43;;
8293;SDS011;4185;41.506;24.938;2023-08-20T11:08:36;5.82;;;3.90;;
8293;SDS011;4185;41.506;24.938;2023-08-20T11:11:03;4.72;;;4.07;;
8293;SDS011;4185;41.506;24.938;2023-08-20T11:13:32;4.47;;;4.07;;
8293;SDS011;4185;41.506;24.938;2023-08-20T11:15:59;4.25;;;3.85;;
8293;SDS011;4185;41.506;24.938;2023-08-20T11:18:27;4.57;;;4.07;;
8293;SDS011;4185;41.506;24.938;2023-08-20T11:20:56;4.57;;;4.03;;
8293;SDS011;4185;41.506;24.938;2023-08-20T11:23:23;8.27;;;4.35;;
8293;SDS011;4185;41.506;24.938;2023-08-20T11:25:50;6.82;;;3.90;;
8293;SDS011;4185;41.506;24.938;2023-08-20T11:28:17;4.78;;;4.03;;
8293;SDS011;4185;41.506;24.938;2023-08-20T11:30:45;4.00;;;3.60;;
8293;SDS011;4185;41.506;24.938;2023-08-20T11:33:13;5.63;;;4.65;;
8293;SDS011;4185;41.506;24.938;2023-08-20T11:35:40;5.65;;;4.50;;
8293;SDS011;4185;41.506;24.938;2023-08-20T11:38:11;4.30;;;3.88;;
8293;SDS011;4185;41.506;24.938;2023-08-20T11:40:38;6.40;;;4.50;;
8293;SDS011;4185;41.506;24.938;2023-08-20T11:43:05;8.20;;;4.40;;
8293;SDS011;4185;41.506;24.938;2023-08-20T11:45:32;4.72;;;4.00;;
8293;SDS011;4185;41.506;24.938;2023-08-20T11:48:09;5.45;;;4.97;;
8293;SDS011;4185;41.506;24.938;2023-08-20T11:50:36;4.80;;;4.32;;
8293;SDS011;4185;41.506;24.938;2023-08-20T11:53:03;6.50;;;4.90;;
8293;SDS011;4185;41.506;24.938;2023-08-20T11:55:32;6.25;;;4.40;;
8293;SDS011;4185;41.506;24.938;2023-08-20T11:57:58;5.55;;;4.25;;
8293;SDS011;4185;41.506;24.938;2023-08-20T12:00:25;4.63;;;4.10;;
8293;SDS011;4185;41.506;24.938;2023-08-20T12:02:53;4.70;;;4.22;;
8293;SDS011;4185;41.506;24.938;2023-08-20T12:05:21;5.65;;;3.92;;
8293;SDS011;4185;41.506;24.938;2023-08-20T12:07:55;7.28;;;4.85;;
8293;SDS011;4185;41.506;24.938;2023-08-20T12:10:23;7.07;;;4.47;;
8293;SDS011;4185;41.506;24.938;2023-08-20T12:12:53;4.97;;;4.07;;
8293;SDS011;4185;41.506;24.938;2023-08-20T12:15:20;8.73;;;4.55;;
8293;SDS011;4185;41.506;24.938;2023-08-20T12:17:57;6.57;;;4.32;;
8293;SDS011;4185;41.506;24.938;2023-08-20T12:20:29;6.05;;;4.45;;
8293;SDS011;4185;41.506;24.938;2023-08-20T12:22:58;5.72;;;4.15;;
8293;SDS011;4185;41.506;24.938;2023-08-20T12:25:26;6.10;;;4.20;;
8293;SDS011;4185;41.506;24.938;2023-08-20T12:27:54;5.88;;;4.40;;
8293;SDS011;4185;41.506;24.938;2023-08-20T12:30:21;5.03;;;3.83;;
8293;SDS011;4185;41.506;24.938;2023-08-20T12:32:48;4.40;;;4.05;;
8293;SDS011;4185;41.506;24.938;2023-08-20T12:35:15;4.60;;;4.20;;
8293;SDS011;4185;41.506;24.938;2023-08-20T12:37:42;5.63;;;4.95;;
8293;SDS011;4185;41.506;24.938;2023-08-20T12:40:09;8.27;;;5.38;;
8293;SDS011;4185;41.506;24.938;2023-08-20T12:42:37;5.93;;;4.80;;
8293;SDS011;4185;41.506;24.938;2023-08-20T12:45:06;4.90;;;4.40;;
8293;SDS011;4185;41.506;24.938;2023-08-20T12:47:35;5.60;;;4.45;;
8293;SDS011;4185;41.506;24.938;2023-08-20T12:50:02;4.90;;;4.30;;
8293;SDS011;4185;41.506;24.938;2023-08-20T12:52:30;6.32;;;4.10;;
8293;SDS011;4185;41.506;24.938;2023-08-20T12:54:56;5.35;;;4.28;;
8293;SDS011;4185;41.506;24.938;2023-08-20T12:57:23;5.55;;;4.32;;
8293;SDS011;4185;41.506;24.938;2023-08-20T12:59:50;6.03;;;4.70;;
8293;SDS011;4185;41.506;24.938;2023-08-20T13:02:19;5.15;;;4.15;;
8293;SDS011;4185;41.506;24.938;2023-08-20T13:04:46;5.55;;;4.45;;
8293;SDS011;4185;41.506;24.938;2023-08-20T13:07:13;5.47;;;4.50;;
8293;SDS011;4185;41.506;24.938;2023-08-20T13:09:41;4.35;;;3.95;;
8293;SDS011;4185;41.506;24.938;2023-08-20T13:12:09;5.38;;;4.30;;
8293;SDS011;4185;41.506;24.938;2023-08-20T13:14:37;4.75;;;4.25;;
8293;SDS011;4185;41.506;24.938;2023-08-20T13:17:06;4.43;;;4.03;;
8293;SDS011;4185;41.506;24.938;2023-08-20T13:19:34;6.07;;;4.13;;
8293;SDS011;4185;41.506;24.938;2023-08-20T13:22:01;4.68;;;4.28;;
8293;SDS011;4185;41.506;24.938;2023-08-20T13:24:28;4.35;;;3.60;;
8293;SDS011;4185;41.506;24.938;2023-08-20T13:26:55;5.70;;;4.47;;
8293;SDS011;4185;41.506;24.938;2023-08-20T13:29:21;4.60;;;4.13;;
8293;SDS011;4185;41.506;24.938;2023-08-20T13:31:48;8.02;;;4.40;;
8293;SDS011;4185;41.506;24.938;2023-08-20T13:34:15;5.50;;;4.47;;
8293;SDS011;4185;41.506;24.938;2023-08-20T13:36:43;5.13;;;4.63;;
8293;SDS011;4185;41.506;24.938;2023-08-20T13:39:11;6.90;;;4.72;;
8293;SDS011;4185;41.506;24.938;2023-08-20T13:41:39;5.75;;;4.40;;
8293;SDS011;4185;41.506;24.938;2023-08-20T13:44:06;4.55;;;4.13;;
8293;SDS011;4185;41.506;24.938;2023-08-20T13:46:33;5.22;;;4.55;;
8293;SDS011;4185;41.506;24.938;2023-08-20T13:49:00;4.65;;;4.25;;
8293;SDS011;4185;41.506;24.938;2023-08-20T13:51:28;6.57;;;4.68;;
8293;SDS011;4185;41.506;24.938;2023-08-20T13:53:56;5.03;;;4.47;;
8293;SDS011;4185;41.506;24.938;2023-08-20T13:56:23;8.07;;;4.30;;
8293;SDS011;4185;41.506;24.938;2023-08-20T13:58:50;5.05;;;4.38;;
8293;SDS011;4185;41.506;24.938;2023-08-20T14:01:18;5.28;;;4.40;;
8293;SDS011;4185;41.506;24.938;2023-08-20T14:03:44;7.82;;;4.93;;
8293;SDS011;4185;41.506;24.938;2023-08-20T14:06:11;8.32;;;4.93;;
8293;SDS011;4185;41.506;24.938;2023-08-20T14:08:38;5.72;;;4.70;;
8293;SDS011;4185;41.506;24.938;2023-08-20T14:11:06;5.15;;;4.55;;
8293;SDS011;4185;41.506;24.938;2023-08-20T14:13:33;7.95;;;4.78;;
8293;SDS011;4185;41.506;24.938;2023-08-20T14:16:00;5.00;;;4.53;;
8293;SDS011;4185;41.506;24.938;2023-08-20T14:18:28;6.47;;;4.22;;
8293;SDS011;4185;41.506;24.938;2023-08-20T14:20:55;5.32;;;3.88;;
8293;SDS011;4185;41.506;24.938;2023-08-20T14:23:23;4.55;;;4.15;;
8293;SDS011;4185;41.506;24.938;2023-08-20T14:25:49;6.80;;;4.82;;
8293;SDS011;4185;41.506;24.938;2023-08-20T14:28:20;4.95;;;4.38;;
8293;SDS011;4185;41.506;24.938;2023-08-20T14:30:48;6.55;;;4.45;;
8293;SDS011;4185;41.506;24.938;2023-08-20T14:33:15;5.43;;;4.68;;
8293;SDS011;4185;41.506;24.938;2023-08-20T14:35:43;6.13;;;4.63;;
8293;SDS011;4185;41.506;24.938;2023-08-20T14:38:10;7.22;;;4.85;;
8293;SDS011;4185;41.506;24.938;2023-08-20T14:40:38;5.55;;;4.55;;
8293;SDS011;4185;41.506;24.938;2023-08-20T14:43:06;5.90;;;4.45;;
8293;SDS011;4185;41.506;24.938;2023-08-20T14:45:34;6.38;;;4.85;;
8293;SDS011;4185;41.506;24.938;2023-08-20T14:48:01;6.13;;;5.53;;
8293;SDS011;4185;41.506;24.938;2023-08-20T14:50:28;8.68;;;5.97;;
8293;SDS011;4185;41.506;24.938;2023-08-20T14:52:55;5.20;;;4.70;;
8293;SDS011;4185;41.506;24.938;2023-08-20T14:55:21;9.10;;;5.47;;
8293;SDS011;4185;41.506;24.938;2023-08-20T14:57:48;5.18;;;4.50;;
8293;SDS011;4185;41.506;24.938;2023-08-20T15:00:15;6.55;;;5.10;;
8293;SDS011;4185;41.506;24.938;2023-08-20T15:02:43;4.07;;;3.72;;